الصفحة الرئيسية
METAR-TAF:

METAR-TAF

مطار :

مطار جناح الدولي

كراتشي, باكستان

دائرة عرض: 24-54N, خط طول: 067-08E, ارتفاع: 21 متر

مراقبة الطقس الحالي

تاريخ ووقت الإصدار 25 دقيقة قبل الساعة 06:00UTC
ريح 5 عقدة من الشمال/الشمال الغربي
درجة الحرارة 37°درجة مئوية
الرطوبة 10%
ضغط 1012 hPa
الرؤية: 5000 متر
العجاج

METAR: OPKC 110600Z 34005KT 5000 HZ NSC 37/01 Q1012 NOSIG

زمن: 11:25 (06:25 UTC)

توقعات

تاريخ ووقت الإصدار 2ساعات و 55 دقيقة قبل الساعة 03:30UTC
التوقعات صالحة من11 الساعة 06 UTC إلى 12 الساعة 12 UTC
ريح 10 عقدة من الجنوب الغربي تتزايد حتى 20 عقدة
الرؤية: 7000 متر
أصبح
من 11 الساعة 17 UTC إلى 11 الساعة 19 UTC
ريح 10 عقدة من الغرب
الرؤية: 6000 متر
غيوم قليلة على ارتفاع 2000 قدم
مؤقت
من 12 الساعة 01 UTC إلى 12 الساعة 05 UTC
ريح 8 عقدة من الغرب
الرؤية: 4000 متر
غيوم قليلة على ارتفاع 2000 قدم
دخان

TAF: OPKC 110330Z 1106/1212 23010G20KT 7000 NSC BECMG 1117/1119 26010KT 6000 FEW020 TEMPO 1201/1205 27008KT 4000 FU FEW020

أرصاد الطقس والتوقعات من أكثر من 4000 مطار (تقارير الطقس للمطار METAR والتنبؤ بالطقس بالمطارTAF).

المحطات المتاحة هي النقط الصفراء والحمراء على الخريطة.

حرك المؤشر فوق النقطة لمعرفة اسم المحطة.

ثم انقر لمعرفة أرصاد وتوقعات الطقس.

لتغيير الخارطة: اضغط على الأزرار الخضراء مع رمز الصليب الأسود للتكبير. على الزر الأخضر مع شرطة للتصغير، أو على الأسهم الخضراء للخرائط المجاورة.


METAR-TAF: